createdAt,value
2022-10-19T00:02:04.213Z,13.08
2022-10-19T00:04:30.983Z,12.95
2022-10-19T00:06:57.615Z,13.00
2022-10-19T00:09:24.120Z,12.97
2022-10-19T00:11:50.884Z,13.03
2022-10-19T00:14:21.009Z,12.99
2022-10-19T00:16:50.418Z,12.94
2022-10-19T00:19:25.689Z,12.97
2022-10-19T00:21:52.581Z,12.93
2022-10-19T00:24:19.714Z,12.95
2022-10-19T00:26:47.105Z,12.91
2022-10-19T00:29:14.870Z,12.82
2022-10-19T00:31:42.158Z,12.97
2022-10-19T00:34:08.965Z,12.95
2022-10-19T00:36:37.609Z,12.91
2022-10-19T00:39:06.307Z,12.88
2022-10-19T00:41:35.496Z,12.82
2022-10-19T00:44:06.261Z,12.85
2022-10-19T00:46:36.746Z,12.85
2022-10-19T00:49:21.940Z,12.67
2022-10-19T00:51:51.909Z,12.78
2022-10-19T00:54:19.411Z,12.79
2022-10-19T00:56:47.817Z,12.75
2022-10-19T00:59:16.768Z,12.75
2022-10-19T01:01:45.300Z,12.71
2022-10-19T01:04:13.450Z,12.70
2022-10-19T01:06:41.379Z,12.70
2022-10-19T01:09:08.997Z,12.68
2022-10-19T01:12:01.655Z,12.59
2022-10-19T01:14:51.728Z,12.44
2022-10-19T01:17:42.993Z,12.49
2022-10-19T01:20:33.961Z,12.58
2022-10-19T01:23:06.699Z,12.54
2022-10-19T01:25:55.303Z,12.48
2022-10-19T01:28:36.709Z,12.36
2022-10-19T01:31:29.842Z,12.41
2022-10-19T01:34:24.327Z,12.44
2022-10-19T01:36:56.667Z,12.44
2022-10-19T01:39:49.937Z,12.43
2022-10-19T01:42:49.549Z,12.37
2022-10-19T01:45:27.201Z,12.36
2022-10-19T01:48:01.751Z,12.32
2022-10-19T01:50:38.284Z,12.28
2022-10-19T01:53:08.398Z,12.23
2022-10-19T01:55:37.927Z,12.31
2022-10-19T01:58:09.549Z,12.03
2022-10-19T02:00:41.096Z,12.30
2022-10-19T02:03:10.043Z,12.24
2022-10-19T02:05:38.709Z,12.21
2022-10-19T02:08:12.167Z,12.18
2022-10-19T02:10:41.166Z,12.08
2022-10-19T02:13:08.256Z,12.18
2022-10-19T02:15:38.391Z,12.14
2022-10-19T02:18:07.105Z,12.12
2022-10-19T02:20:35.507Z,12.01
2022-10-19T02:23:04.868Z,11.96
2022-10-19T02:25:32.544Z,12.05
2022-10-19T02:28:00.950Z,11.92
2022-10-19T02:30:27.824Z,12.00
2022-10-19T02:32:54.733Z,12.02
2022-10-19T02:35:22.557Z,11.99
2022-10-19T02:37:49.602Z,12.00
2022-10-19T02:40:16.324Z,12.10
2022-10-19T02:42:50.329Z,12.05
2022-10-19T02:45:26.137Z,12.04
2022-10-19T02:47:58.224Z,12.06
2022-10-19T02:50:25.098Z,12.14
2022-10-19T02:52:51.812Z,12.14
2022-10-19T02:55:18.549Z,12.16
2022-10-19T02:57:45.378Z,12.15
2022-10-19T03:00:12.324Z,12.15
2022-10-19T03:02:38.843Z,12.01
2022-10-19T03:05:05.654Z,12.10
2022-10-19T03:07:32.681Z,12.08
2022-10-19T03:09:59.426Z,12.09
2022-10-19T03:12:26.046Z,12.08
2022-10-19T03:14:52.756Z,12.05
2022-10-19T03:17:19.368Z,12.12
2022-10-19T03:19:46.124Z,12.10
2022-10-19T03:22:14.894Z,11.97
2022-10-19T03:24:41.560Z,12.00
2022-10-19T03:27:08.292Z,11.97
2022-10-19T03:29:34.820Z,11.83
2022-10-19T03:32:01.450Z,11.83
2022-10-19T03:34:28.055Z,11.92
2022-10-19T03:36:54.625Z,11.82
2022-10-19T03:39:21.412Z,11.87
2022-10-19T03:41:47.958Z,11.82
2022-10-19T03:44:14.495Z,11.72
2022-10-19T03:46:41.068Z,11.74
2022-10-19T03:49:09.948Z,11.61
2022-10-19T03:51:36.560Z,11.63
2022-10-19T03:54:08.556Z,11.50
2022-10-19T03:56:35.989Z,11.69
2022-10-19T03:59:04.277Z,11.55
2022-10-19T04:01:40.565Z,11.63
2022-10-19T04:04:13.976Z,11.66
2022-10-19T04:06:42.879Z,11.63
2022-10-19T04:09:13.044Z,11.59
2022-10-19T04:11:39.646Z,11.52
2022-10-19T04:14:06.411Z,11.52
2022-10-19T04:16:33.518Z,11.41
2022-10-19T04:19:00.553Z,11.53
2022-10-19T04:21:32.698Z,11.47
2022-10-19T04:24:05.969Z,11.45
2022-10-19T04:26:34.140Z,11.44
2022-10-19T04:29:01.761Z,11.44
2022-10-19T04:31:28.977Z,11.16
2022-10-19T04:33:56.614Z,11.44
2022-10-19T04:36:23.892Z,11.38
2022-10-19T04:38:50.496Z,11.50
2022-10-19T04:41:19.175Z,11.51
2022-10-19T04:43:46.510Z,11.50
2022-10-19T04:46:18.361Z,11.50
2022-10-19T04:48:46.392Z,11.44
2022-10-19T04:51:14.345Z,11.33
2022-10-19T04:53:42.349Z,11.51
2022-10-19T04:56:12.870Z,11.43
2022-10-19T04:58:39.712Z,11.31
2022-10-19T05:01:15.349Z,11.39
2022-10-19T05:03:42.035Z,11.33
2022-10-19T05:06:09.567Z,11.19
2022-10-19T05:08:37.096Z,11.29
2022-10-19T05:11:06.618Z,11.25
2022-10-19T05:13:33.591Z,11.09
2022-10-19T05:16:01.804Z,11.06
2022-10-19T05:18:28.831Z,11.04
2022-10-19T05:21:10.094Z,11.21
2022-10-19T05:23:37.223Z,11.15
2022-10-19T05:26:07.153Z,11.24
2022-10-19T05:28:34.170Z,11.25
2022-10-19T05:31:12.242Z,11.17
2022-10-19T05:33:39.025Z,11.24
2022-10-19T05:36:17.491Z,11.19
2022-10-19T05:38:45.802Z,11.28
2022-10-19T05:41:12.653Z,11.19
2022-10-19T05:43:40.549Z,11.11
2022-10-19T05:46:09.669Z,11.23
2022-10-19T05:48:36.616Z,11.14
2022-10-19T05:51:07.812Z,11.23
2022-10-19T05:53:35.002Z,11.25
2022-10-19T05:56:03.831Z,11.24
2022-10-19T05:58:30.390Z,11.28
2022-10-19T06:00:59.180Z,11.26
2022-10-19T06:03:26.402Z,11.17
2022-10-19T06:05:54.262Z,11.17
2022-10-19T06:08:22.597Z,10.99
2022-10-19T06:10:50.374Z,11.17
2022-10-19T06:13:19.148Z,11.22
2022-10-19T06:15:50.676Z,11.22
2022-10-19T06:18:17.691Z,11.04
2022-10-19T06:20:44.333Z,11.08
2022-10-19T06:23:10.933Z,11.00
2022-10-19T06:25:38.140Z,11.14
2022-10-19T06:28:04.897Z,11.08
2022-10-19T06:30:31.408Z,11.13
2022-10-19T06:32:59.008Z,11.13
2022-10-19T06:35:25.608Z,11.04
2022-10-19T06:37:52.365Z,11.14
2022-10-19T06:40:19.053Z,10.99
2022-10-19T06:42:45.758Z,11.01
2022-10-19T06:45:12.493Z,10.93
2022-10-19T06:47:39.390Z,11.11
2022-10-19T06:50:07.093Z,11.14
2022-10-19T06:52:37.405Z,11.22
2022-10-19T06:55:04.949Z,11.20
2022-10-19T06:57:32.087Z,11.14
2022-10-19T06:59:58.903Z,11.02
2022-10-19T07:02:25.641Z,11.15
2022-10-19T07:04:52.265Z,11.15
2022-10-19T07:07:18.845Z,11.14
2022-10-19T07:09:45.405Z,11.17
2022-10-19T07:12:12.019Z,11.27
2022-10-19T07:14:39.772Z,11.23
2022-10-19T07:17:07.877Z,11.33
2022-10-19T07:19:34.936Z,11.38
2022-10-19T07:22:01.795Z,11.46
2022-10-19T07:24:28.359Z,11.43
2022-10-19T07:26:55.723Z,11.48
2022-10-19T07:29:22.505Z,11.64
2022-10-19T07:31:49.146Z,11.59
2022-10-19T07:34:16.351Z,11.63
2022-10-19T07:36:46.060Z,11.70
2022-10-19T07:39:13.249Z,11.72
2022-10-19T07:41:39.965Z,11.84
2022-10-19T07:44:07.469Z,11.92
2022-10-19T07:46:38.735Z,11.92
2022-10-19T07:49:12.774Z,12.05
2022-10-19T07:51:40.230Z,11.77
2022-10-19T07:54:06.872Z,11.66
2022-10-19T07:56:33.695Z,11.60
2022-10-19T07:59:00.701Z,11.70
2022-10-19T08:01:30.300Z,11.79
2022-10-19T08:06:45.143Z,11.94
2022-10-19T08:09:22.973Z,11.96
2022-10-19T08:11:58.647Z,11.88
2022-10-19T08:14:25.973Z,11.84
2022-10-19T08:16:52.489Z,11.88
2022-10-19T08:19:19.077Z,11.78
2022-10-19T08:21:46.940Z,11.48
2022-10-19T08:24:15.629Z,11.53
2022-10-19T08:26:42.696Z,11.63
2022-10-19T08:29:14.732Z,11.73
2022-10-19T08:31:43.017Z,11.70
2022-10-19T08:34:10.006Z,11.90
2022-10-19T08:36:37.219Z,12.01
2022-10-19T08:39:05.815Z,11.97
2022-10-19T08:41:41.505Z,12.11
2022-10-19T08:44:29.169Z,12.12
2022-10-19T08:47:06.038Z,11.96
2022-10-19T08:49:34.349Z,11.96
2022-10-19T08:52:05.866Z,12.07
2022-10-19T08:54:56.214Z,12.21
2022-10-19T08:57:42.174Z,12.29
2022-10-19T09:00:21.117Z,12.44
2022-10-19T09:03:05.813Z,12.38
2022-10-19T09:05:44.039Z,12.44
2022-10-19T09:08:17.451Z,12.41
2022-10-19T09:10:48.809Z,12.64
2022-10-19T09:13:41.456Z,12.63
2022-10-19T09:16:16.084Z,12.70
2022-10-19T09:18:43.658Z,12.81
2022-10-19T09:21:19.555Z,12.90
2022-10-19T09:24:05.956Z,13.00
2022-10-19T09:26:37.987Z,12.98
2022-10-19T09:29:28.656Z,13.02
2022-10-19T09:32:00.345Z,13.16
2022-10-19T09:34:50.052Z,13.27
2022-10-19T09:37:24.881Z,13.29
2022-10-19T09:39:55.189Z,13.45
2022-10-19T09:42:37.111Z,13.51
2022-10-19T09:45:29.724Z,13.50
2022-10-19T09:48:00.431Z,13.48
2022-10-19T09:50:31.544Z,13.48
2022-10-19T09:53:05.633Z,13.43
2022-10-19T09:55:42.308Z,13.42
2022-10-19T09:58:14.735Z,13.62
2022-10-19T10:00:50.831Z,13.81
2022-10-19T10:03:23.378Z,13.97
2022-10-19T10:05:50.474Z,14.08
2022-10-19T10:08:21.458Z,13.97
2022-10-19T10:11:00.679Z,13.99
2022-10-19T10:13:28.152Z,14.00
2022-10-19T10:16:02.148Z,13.98
2022-10-19T10:18:30.497Z,14.12
2022-10-19T10:21:00.601Z,14.06
2022-10-19T10:23:32.237Z,14.15
2022-10-19T10:26:00.121Z,14.29
2022-10-19T10:28:29.284Z,14.41
2022-10-19T10:31:01.908Z,14.32
2022-10-19T10:33:44.226Z,14.26
2022-10-19T10:36:12.326Z,14.30
2022-10-19T10:38:47.284Z,14.26
2022-10-19T10:41:23.112Z,14.52
2022-10-19T10:43:56.757Z,14.47
2022-10-19T10:46:28.949Z,14.63
2022-10-19T10:49:01.939Z,14.73
2022-10-19T10:51:37.382Z,15.00
2022-10-19T10:54:24.658Z,15.07
2022-10-19T10:57:13.172Z,15.13
2022-10-19T11:00:12.473Z,15.12
2022-10-19T11:03:01.275Z,15.14
2022-10-19T11:05:36.584Z,15.12
2022-10-19T11:08:12.067Z,15.23
2022-10-19T11:11:06.314Z,15.21
2022-10-19T11:13:45.107Z,15.17
2022-10-19T11:16:14.960Z,15.30
2022-10-19T11:18:46.161Z,15.39
2022-10-19T11:21:20.320Z,15.45
2022-10-19T11:24:13.393Z,15.63
2022-10-19T11:26:49.223Z,15.69
2022-10-19T11:29:18.774Z,15.64
2022-10-19T11:31:51.529Z,15.63
2022-10-19T11:34:40.198Z,15.66
2022-10-19T11:37:50.134Z,15.55
2022-10-19T11:41:13.093Z,15.42
2022-10-19T11:44:03.606Z,15.41
2022-10-19T11:46:58.025Z,15.38
2022-10-19T11:49:43.264Z,15.42
2022-10-19T11:52:46.318Z,15.54
2022-10-19T11:55:47.717Z,15.69
2022-10-19T11:58:35.277Z,15.97
2022-10-19T12:01:11.124Z,16.00
2022-10-19T12:04:03.441Z,15.89
2022-10-19T12:06:44.904Z,15.90
2022-10-19T12:09:34.190Z,15.71
2022-10-19T12:12:24.911Z,15.84
2022-10-19T12:14:54.134Z,15.99
2022-10-19T12:17:27.272Z,16.17
2022-10-19T12:19:58.890Z,16.27
2022-10-19T12:22:29.672Z,16.18
2022-10-19T12:25:00.649Z,16.33
2022-10-19T12:27:34.832Z,16.29
2022-10-19T12:30:08.422Z,16.23
2022-10-19T12:32:53.537Z,16.26
2022-10-19T12:35:47.248Z,16.18
2022-10-19T12:38:26.046Z,16.16
2022-10-19T12:40:56.713Z,16.07
2022-10-19T12:44:01.890Z,15.99
2022-10-19T12:46:38.576Z,15.90
2022-10-19T12:49:26.667Z,16.06
2022-10-19T12:51:55.259Z,16.06
2022-10-19T12:54:33.956Z,15.98
2022-10-19T12:57:02.181Z,16.06
2022-10-19T12:59:34.099Z,16.06
2022-10-19T13:02:02.698Z,16.02
2022-10-19T13:04:32.044Z,15.94
2022-10-19T13:07:01.496Z,15.91
2022-10-19T13:09:35.087Z,15.92
2022-10-19T13:12:16.307Z,15.77
2022-10-19T13:14:53.612Z,15.88
2022-10-19T13:17:48.422Z,15.86
2022-10-19T13:20:14.974Z,15.75
2022-10-19T13:23:08.817Z,15.89
2022-10-19T13:25:39.466Z,15.99
2022-10-19T13:28:17.897Z,16.05
2022-10-19T13:30:44.322Z,16.05
2022-10-19T13:33:24.627Z,15.96
2022-10-19T13:36:00.612Z,15.86
2022-10-19T13:38:55.719Z,15.76
2022-10-19T13:41:27.275Z,15.79
2022-10-19T13:44:13.888Z,15.81
2022-10-19T13:47:02.292Z,15.85
2022-10-19T13:49:47.595Z,15.76
2022-10-19T13:52:42.089Z,15.88
2022-10-19T13:55:22.052Z,15.82
2022-10-19T13:58:00.448Z,15.95
2022-10-19T14:00:38.171Z,16.00
2022-10-19T14:03:23.963Z,16.06
2022-10-19T14:06:27.551Z,16.09
2022-10-19T14:09:22.593Z,16.17
2022-10-19T14:11:53.234Z,16.21
2022-10-19T14:14:24.676Z,16.20
2022-10-19T14:17:03.997Z,16.12
2022-10-19T14:19:34.030Z,16.10
2022-10-19T14:22:16.907Z,16.01
2022-10-19T14:24:43.546Z,16.09
2022-10-19T14:27:18.564Z,16.03
2022-10-19T14:29:50.801Z,16.00
2022-10-19T14:32:22.442Z,15.85
2022-10-19T14:34:49.740Z,15.87
2022-10-19T14:37:22.415Z,15.90
2022-10-19T14:40:08.838Z,15.77
2022-10-19T14:42:41.766Z,15.81
2022-10-19T14:45:19.976Z,15.79
2022-10-19T14:48:07.558Z,15.91
2022-10-19T14:50:34.082Z,15.90
2022-10-19T14:53:39.812Z,15.86
2022-10-19T14:56:12.388Z,15.89
2022-10-19T14:58:55.674Z,15.86
2022-10-19T15:01:22.582Z,15.76
2022-10-19T15:03:50.246Z,15.75
2022-10-19T15:06:21.539Z,15.82
2022-10-19T15:08:55.370Z,15.74
2022-10-19T15:11:33.242Z,15.74
2022-10-19T15:14:14.136Z,15.74
2022-10-19T15:16:51.263Z,15.73
2022-10-19T15:19:39.199Z,15.70
2022-10-19T15:22:08.739Z,15.62
2022-10-19T15:24:36.305Z,15.50
2022-10-19T15:27:11.420Z,15.46
2022-10-19T15:29:38.221Z,15.34
2022-10-19T15:32:15.996Z,15.41
2022-10-19T15:34:44.367Z,15.34
2022-10-19T15:37:19.009Z,15.26
2022-10-19T15:39:45.868Z,15.18
2022-10-19T15:42:34.867Z,15.16
2022-10-19T15:45:02.483Z,15.10
2022-10-19T15:47:29.138Z,15.11
2022-10-19T15:50:31.026Z,15.04
2022-10-19T15:52:59.443Z,14.96
2022-10-19T15:55:26.044Z,14.87
2022-10-19T15:57:59.137Z,14.85
2022-10-19T16:00:26.222Z,14.79
2022-10-19T16:02:52.840Z,14.64
2022-10-19T16:05:19.765Z,14.68
2022-10-19T16:07:47.284Z,14.62
2022-10-19T16:10:19.737Z,14.54
2022-10-19T16:12:46.397Z,14.43
2022-10-19T16:15:17.462Z,14.41
2022-10-19T16:17:47.285Z,14.33
2022-10-19T16:20:14.171Z,14.25
2022-10-19T16:22:41.138Z,14.25
2022-10-19T16:25:07.706Z,14.24
2022-10-19T16:27:34.521Z,14.19
2022-10-19T16:30:01.410Z,14.10
2022-10-19T16:32:29.268Z,14.05
2022-10-19T16:34:55.786Z,14.07
2022-10-19T16:37:22.359Z,14.09
2022-10-19T16:39:48.899Z,14.14
2022-10-19T16:42:15.487Z,13.99
2022-10-19T16:44:42.014Z,14.05
2022-10-19T16:47:08.516Z,14.03
2022-10-19T16:49:35.039Z,13.97
2022-10-19T16:52:01.747Z,13.96
2022-10-19T16:54:30.087Z,13.90
2022-10-19T16:56:56.660Z,13.88
2022-10-19T16:59:23.197Z,13.82
2022-10-19T17:01:49.958Z,13.62
2022-10-19T17:04:18.006Z,13.68
2022-10-19T17:06:44.978Z,13.62
2022-10-19T17:09:40.216Z,13.60
2022-10-19T17:11:58.022Z,13.44
2022-10-19T17:14:24.555Z,13.46
2022-10-19T17:16:51.071Z,13.41
2022-10-19T17:19:17.520Z,13.41
2022-10-19T17:21:44.253Z,13.38
2022-10-19T17:24:21.052Z,13.33
2022-10-19T17:26:49.591Z,13.17
2022-10-19T17:29:16.164Z,13.21
2022-10-19T17:31:42.878Z,13.17
2022-10-19T17:34:10.279Z,13.15
2022-10-19T17:39:11.018Z,12.92
2022-10-19T17:41:37.621Z,12.96
2022-10-19T17:44:05.253Z,12.83
2022-10-19T17:46:34.392Z,12.82
2022-10-19T17:49:01.283Z,12.82
2022-10-19T17:51:30.246Z,12.76
2022-10-19T17:54:08.022Z,12.73
2022-10-19T17:56:35.925Z,12.70
2022-10-19T17:59:03.245Z,12.63
2022-10-19T18:01:31.092Z,12.60
2022-10-19T18:03:57.852Z,12.57
2022-10-19T18:06:25.818Z,12.55
2022-10-19T18:08:55.647Z,12.54
2022-10-19T18:11:36.001Z,12.49
2022-10-19T18:14:03.654Z,12.45
2022-10-19T18:16:36.070Z,12.46
2022-10-19T18:19:05.050Z,12.43
2022-10-19T18:21:35.453Z,12.39
2022-10-19T18:24:02.788Z,12.37
2022-10-19T18:26:32.421Z,12.30
2022-10-19T18:29:01.264Z,12.28
2022-10-19T18:31:30.736Z,12.12
2022-10-19T18:34:00.454Z,12.15
2022-10-19T18:36:27.397Z,12.15
2022-10-19T18:38:57.491Z,12.12
2022-10-19T18:41:30.407Z,12.11
2022-10-19T18:44:05.314Z,12.07
2022-10-19T18:46:33.683Z,12.08
2022-10-19T18:49:03.193Z,12.04
2022-10-19T18:51:30.759Z,12.00
2022-10-19T18:53:57.402Z,11.86
2022-10-19T18:56:24.605Z,11.94
2022-10-19T18:59:05.332Z,11.85
2022-10-19T19:01:32.854Z,11.86
2022-10-19T19:04:06.577Z,11.80
2022-10-19T19:06:38.658Z,11.80
2022-10-19T19:09:17.463Z,11.76
2022-10-19T19:11:44.102Z,11.75
2022-10-19T19:14:17.143Z,11.70
2022-10-19T19:16:57.298Z,11.66
2022-10-19T19:19:25.768Z,11.55
2022-10-19T19:21:52.590Z,11.57
2022-10-19T19:24:21.974Z,11.52
2022-10-19T19:26:51.421Z,11.46
2022-10-19T19:29:19.297Z,11.47
2022-10-19T19:31:47.119Z,11.45
2022-10-19T19:34:13.737Z,11.41
2022-10-19T19:36:46.659Z,11.40
2022-10-19T19:39:15.574Z,11.34
2022-10-19T19:41:42.042Z,11.35
2022-10-19T19:44:08.570Z,11.19
2022-10-19T19:46:35.897Z,11.19
2022-10-19T19:49:03.960Z,11.34
2022-10-19T19:51:31.564Z,11.33
2022-10-19T19:53:58.540Z,11.25
2022-10-19T19:56:25.510Z,11.23
2022-10-19T19:58:57.186Z,11.40
2022-10-19T20:01:24.315Z,11.34
2022-10-19T20:03:50.959Z,11.42
2022-10-19T20:06:22.121Z,11.44
2022-10-19T20:08:51.860Z,11.34
2022-10-19T20:11:18.443Z,11.36
2022-10-19T20:13:45.702Z,11.45
2022-10-19T20:16:15.621Z,11.29
2022-10-19T20:18:44.972Z,11.46
2022-10-19T20:21:12.797Z,11.45
2022-10-19T20:23:39.369Z,11.45
2022-10-19T20:26:06.126Z,11.45
2022-10-19T20:28:34.370Z,11.47
2022-10-19T20:31:06.560Z,11.46
2022-10-19T20:33:34.983Z,11.47
2022-10-19T20:36:06.457Z,11.46
2022-10-19T20:38:34.540Z,11.40
2022-10-19T20:41:08.017Z,11.37
2022-10-19T20:43:38.372Z,11.34
2022-10-19T20:46:07.221Z,11.46
2022-10-19T20:48:34.001Z,11.39
2022-10-19T20:51:12.766Z,11.40
2022-10-19T20:53:39.917Z,11.26
2022-10-19T20:56:12.904Z,11.21
2022-10-19T20:58:42.441Z,11.28
2022-10-19T21:01:18.018Z,11.23
2022-10-19T21:03:55.761Z,11.25
2022-10-19T21:06:24.964Z,11.16
2022-10-19T21:08:52.279Z,11.09
2022-10-19T21:11:25.020Z,11.20
2022-10-19T21:13:56.449Z,11.18
2022-10-19T21:16:24.530Z,11.06
2022-10-19T21:18:51.075Z,11.08
2022-10-19T21:21:27.263Z,11.07
2022-10-19T21:24:00.167Z,11.08
2022-10-19T21:26:28.141Z,11.05
2022-10-19T21:28:55.470Z,10.95
2022-10-19T21:31:23.591Z,11.08
2022-10-19T21:33:51.729Z,11.06
2022-10-19T21:36:19.578Z,11.06
2022-10-19T21:38:46.284Z,11.02
2022-10-19T21:41:15.738Z,10.94
2022-10-19T21:43:42.864Z,10.88
2022-10-19T21:46:13.478Z,10.80
2022-10-19T21:48:40.132Z,10.80
2022-10-19T21:51:34.705Z,10.75
2022-10-19T21:54:02.727Z,10.70
2022-10-19T21:56:29.460Z,10.63
2022-10-19T21:58:56.644Z,10.51
2022-10-19T22:01:26.603Z,10.44
2022-10-19T22:04:01.349Z,10.43
2022-10-19T22:06:29.369Z,10.49
2022-10-19T22:08:56.280Z,10.45
2022-10-19T22:11:23.624Z,10.41
2022-10-19T22:13:54.789Z,10.46
2022-10-19T22:16:21.842Z,10.35
2022-10-19T22:18:48.920Z,10.33
2022-10-19T22:21:23.021Z,10.32
2022-10-19T22:23:55.038Z,10.15
2022-10-19T22:26:27.418Z,10.24
2022-10-19T22:28:56.904Z,10.23
2022-10-19T22:31:25.403Z,10.20
2022-10-19T22:33:51.972Z,10.15
2022-10-19T22:36:19.088Z,10.11
2022-10-19T22:38:46.102Z,10.10
2022-10-19T22:41:13.154Z,9.98
2022-10-19T22:43:39.638Z,10.09
2022-10-19T22:46:06.227Z,9.84
2022-10-19T22:48:32.842Z,9.99
2022-10-19T22:50:59.455Z,9.82
2022-10-19T22:53:25.955Z,9.92
2022-10-19T22:55:52.579Z,9.95
2022-10-19T22:58:20.036Z,9.89
2022-10-19T23:00:57.000Z,9.73
2022-10-19T23:03:23.550Z,9.87
2022-10-19T23:05:50.067Z,9.82
2022-10-19T23:08:16.582Z,9.80
2022-10-19T23:10:43.059Z,9.85
2022-10-19T23:13:11.081Z,9.88
2022-10-19T23:15:41.658Z,9.86
2022-10-19T23:18:10.624Z,9.82
2022-10-19T23:20:37.167Z,9.74
2022-10-19T23:23:03.678Z,9.76
2022-10-19T23:28:01.635Z,9.69
2022-10-19T23:30:28.131Z,9.67
2022-10-19T23:32:54.638Z,9.64
2022-10-19T23:35:21.250Z,9.62
2022-10-19T23:37:47.941Z,9.64
2022-10-19T23:40:14.463Z,9.59
2022-10-19T23:42:41.341Z,9.60
2022-10-19T23:45:08.157Z,9.59
2022-10-19T23:47:35.012Z,9.58
2022-10-19T23:50:01.766Z,9.59
2022-10-19T23:52:28.301Z,9.61
2022-10-19T23:54:54.812Z,9.47
2022-10-19T23:57:21.338Z,9.57
2022-10-19T23:59:47.870Z,9.52
